Time;durP1;ratioP1;P1;durP2;ratioP2;P2;SDS_P1;SDS_P2;PMS_P1;PMS_P2;Temp;Humidity;BMP_temperature;BMP_pressure;BME280_temperature;BME280_humidity;BME280_pressure;Samples;Min_cycle;Max_cycle;Signal;HPM_P1;HPM_P2
2023/11/24 00:02:15;;;;;;;13.00;5.07;;;8.40;99.90;;;;;;5059448;28;20462;-60
2023/11/24 00:04:43;;;;;;;18.10;4.77;;;8.40;99.90;;;;;;5059429;28;20879;-59
2023/11/24 00:07:11;;;;;;;19.00;5.20;;;8.50;99.90;;;;;;5059000;28;20852;-61
2023/11/24 00:09:38;;;;;;;13.90;4.87;;;8.40;99.90;;;;;;5058715;28;20458;-61
2023/11/24 00:12:06;;;;;;;17.97;5.13;;;8.40;99.90;;;;;;5059134;28;20454;-60
2023/11/24 00:14:33;;;;;;;14.90;4.53;;;8.40;99.90;;;;;;5059186;28;20465;-60
2023/11/24 00:17:00;;;;;;;21.87;5.37;;;8.40;99.90;;;;;;5058721;28;20460;-61
2023/11/24 00:19:29;;;;;;;16.43;5.17;;;8.40;99.90;;;;;;5058805;28;20462;-60
2023/11/24 00:21:56;;;;;;;14.33;5.27;;;8.40;99.90;;;;;;5058910;28;20469;-60
2023/11/24 00:24:23;;;;;;;15.30;5.80;;;8.40;99.90;;;;;;5058996;28;20465;-60
2023/11/24 00:26:51;;;;;;;19.27;5.80;;;8.40;99.90;;;;;;5058749;28;20883;-61
2023/11/24 00:29:18;;;;;;;15.30;5.73;;;8.30;99.90;;;;;;5058226;28;20458;-60
2023/11/24 00:31:45;;;;;;;19.83;4.80;;;8.30;99.90;;;;;;5058517;28;20777;-60
2023/11/24 00:34:14;;;;;;;20.10;6.20;;;8.30;99.90;;;;;;5058664;28;20467;-61
2023/11/24 00:36:43;;;;;;;10.13;3.73;;;8.30;99.90;;;;;;5058926;28;20934;-60
2023/11/24 00:39:10;;;;;;;14.37;4.47;;;8.20;99.90;;;;;;5058477;28;20486;-61
2023/11/24 00:41:37;;;;;;;11.50;4.47;;;8.10;99.90;;;;;;5058860;28;20470;-61
2023/11/24 00:44:05;;;;;;;13.23;3.93;;;8.00;99.90;;;;;;5058878;28;20470;-62
2023/11/24 00:46:32;;;;;;;13.77;3.70;;;8.00;99.90;;;;;;5058885;28;20458;-61
2023/11/24 00:48:59;;;;;;;6.10;3.30;;;7.80;99.90;;;;;;5058713;28;20455;-60
2023/11/24 00:51:26;;;;;;;9.37;3.30;;;7.70;99.90;;;;;;5058545;28;20432;-61
2023/11/24 00:53:55;;;;;;;13.73;3.17;;;7.70;99.90;;;;;;5058254;28;20458;-61
2023/11/24 00:56:23;;;;;;;11.07;3.70;;;7.60;99.90;;;;;;5058349;28;20465;-60
2023/11/24 00:58:50;;;;;;;13.73;4.20;;;7.60;99.90;;;;;;5057706;28;20468;-60
2023/11/24 01:01:18;;;;;;;9.23;3.20;;;7.50;99.90;;;;;;5057988;28;20462;-60
2023/11/24 01:03:46;;;;;;;9.63;3.57;;;7.50;99.90;;;;;;5058114;28;20462;-60
2023/11/24 01:06:13;;;;;;;7.60;3.00;;;7.50;99.90;;;;;;5058134;28;20938;-60
2023/11/24 01:08:40;;;;;;;11.20;4.10;;;7.60;99.90;;;;;;5058211;28;20504;-59
2023/11/24 01:11:09;;;;;;;9.77;3.50;;;7.50;99.90;;;;;;5058179;28;20458;-61
2023/11/24 01:13:38;;;;;;;12.40;3.37;;;7.50;99.90;;;;;;5058238;28;20471;-61
2023/11/24 01:16:08;;;;;;;13.03;4.40;;;7.40;99.90;;;;;;5058011;28;20756;-60
2023/11/24 01:18:37;;;;;;;11.47;3.50;;;7.40;99.90;;;;;;5057883;28;20537;-61
2023/11/24 01:21:04;;;;;;;16.30;3.10;;;7.30;99.90;;;;;;5057511;28;20463;-62
2023/11/24 01:23:35;;;;;;;9.70;3.00;;;7.20;99.90;;;;;;5057637;28;20443;-60
2023/11/24 01:26:02;;;;;;;10.67;2.57;;;7.20;99.90;;;;;;5057530;28;20809;-60
2023/11/24 01:28:31;;;;;;;11.60;3.50;;;7.10;99.90;;;;;;5057565;28;20821;-60
2023/11/24 01:30:58;;;;;;;7.07;2.63;;;7.10;99.90;;;;;;5056601;28;20473;-60
2023/11/24 01:33:25;;;;;;;9.27;3.13;;;7.00;99.90;;;;;;5057658;28;20458;-60
2023/11/24 01:35:53;;;;;;;5.03;2.60;;;6.90;99.90;;;;;;5057354;28;20458;-60
2023/11/24 01:38:20;;;;;;;10.60;2.67;;;6.80;99.90;;;;;;5057807;28;20958;-61
2023/11/24 01:40:47;;;;;;;6.77;2.30;;;6.70;99.90;;;;;;5057023;28;20819;-61
2023/11/24 01:43:15;;;;;;;6.87;3.03;;;6.70;99.90;;;;;;5057103;28;20468;-60
2023/11/24 01:45:45;;;;;;;9.00;3.70;;;6.70;99.90;;;;;;5065611;28;20844;-60
2023/11/24 01:48:14;;;;;;;5.60;3.10;;;6.70;99.90;;;;;;5076564;28;20789;-61
2023/11/24 01:50:42;;;;;;;11.30;3.10;;;6.70;99.90;;;;;;5076793;28;20457;-61
2023/11/24 01:53:09;;;;;;;8.17;2.90;;;6.70;99.90;;;;;;5077354;28;20461;-60
2023/11/24 01:55:37;;;;;;;10.73;3.17;;;6.60;99.90;;;;;;5077192;28;20460;-60
2023/11/24 01:58:04;;;;;;;6.70;2.60;;;6.50;99.90;;;;;;5077472;28;20493;-60
2023/11/24 02:00:33;;;;;;;7.83;4.13;;;6.50;99.90;;;;;;5077558;28;20461;-60
2023/11/24 02:03:02;;;;;;;6.80;2.70;;;6.40;99.90;;;;;;5077241;28;20457;-60
2023/11/24 02:05:29;;;;;;;6.87;2.53;;;6.50;99.90;;;;;;5076807;28;20464;-60
2023/11/24 02:07:59;;;;;;;8.17;2.57;;;6.40;99.90;;;;;;5077026;28;20481;-60
2023/11/24 02:10:27;;;;;;;5.60;2.20;;;6.50;99.90;;;;;;5077474;28;20461;-60
2023/11/24 02:12:54;;;;;;;6.83;2.23;;;6.40;99.90;;;;;;5077002;28;20489;-60
2023/11/24 02:15:21;;;;;;;7.30;3.03;;;6.40;99.90;;;;;;5076913;28;20465;-60
2023/11/24 02:17:48;;;;;;;5.10;2.40;;;6.40;99.90;;;;;;5077194;28;20492;-60
2023/11/24 02:20:17;;;;;;;5.83;2.40;;;6.40;99.90;;;;;;5077164;28;20457;-61
2023/11/24 02:22:46;;;;;;;7.23;2.47;;;6.40;99.90;;;;;;5076659;28;20874;-60
2023/11/24 02:25:14;;;;;;;9.43;3.10;;;6.40;99.90;;;;;;5077024;28;20480;-60
2023/11/24 02:27:41;;;;;;;9.70;2.87;;;6.30;99.90;;;;;;5076398;28;20461;-60
2023/11/24 02:30:11;;;;;;;6.80;3.00;;;6.30;99.90;;;;;;5075989;28;20432;-60
2023/11/24 02:32:38;;;;;;;9.03;3.33;;;6.20;99.90;;;;;;5077126;28;20507;-61
2023/11/24 02:35:05;;;;;;;9.60;3.00;;;6.20;99.90;;;;;;5076698;28;20457;-60
2023/11/24 02:37:32;;;;;;;15.23;3.33;;;6.20;99.90;;;;;;5077053;28;20460;-60
2023/11/24 02:40:03;;;;;;;11.80;3.07;;;6.20;99.90;;;;;;5076703;28;20519;-60
2023/11/24 02:42:31;;;;;;;9.13;2.93;;;6.10;99.90;;;;;;5076863;28;20519;-60
2023/11/24 02:44:58;;;;;;;7.37;2.90;;;6.10;99.90;;;;;;5076143;28;20469;-60
2023/11/24 02:47:25;;;;;;;6.20;2.67;;;6.00;99.90;;;;;;5076249;28;20551;-60
2023/11/24 02:49:52;;;;;;;9.70;3.73;;;6.00;99.90;;;;;;5076708;28;20460;-60
2023/11/24 02:52:20;;;;;;;6.20;2.90;;;6.00;99.90;;;;;;5076829;28;20741;-59
2023/11/24 02:54:47;;;;;;;7.70;2.97;;;5.90;99.90;;;;;;5076242;28;20468;-60
2023/11/24 02:57:16;;;;;;;8.43;2.70;;;5.90;99.90;;;;;;5077941;28;20457;-60
2023/11/24 02:59:44;;;;;;;6.53;3.70;;;5.80;99.90;;;;;;5080294;28;20496;-60
2023/11/24 03:02:11;;;;;;;8.90;2.67;;;5.80;99.90;;;;;;5080489;28;20511;-60
2023/11/24 03:04:39;;;;;;;9.60;3.50;;;5.80;99.90;;;;;;5080589;28;20461;-60
2023/11/24 03:07:09;;;;;;;6.23;3.40;;;5.80;99.90;;;;;;5079909;28;20477;-59
2023/11/24 03:09:36;;;;;;;8.33;3.07;;;5.80;99.90;;;;;;5080088;28;20462;-60
2023/11/24 03:12:03;;;;;;;8.20;3.50;;;5.80;99.90;;;;;;5080233;28;20460;-59
2023/11/24 03:14:32;;;;;;;8.70;2.80;;;5.80;99.90;;;;;;5079481;28;20755;-60
2023/11/24 03:16:59;;;;;;;7.03;2.80;;;5.80;99.90;;;;;;5079537;28;20523;-59
2023/11/24 03:19:27;;;;;;;8.73;2.87;;;5.90;99.90;;;;;;5080067;28;21033;-59
2023/11/24 03:21:54;;;;;;;12.43;2.97;;;5.90;99.90;;;;;;5079999;28;20471;-60
2023/11/24 03:24:21;;;;;;;11.40;3.50;;;6.00;99.90;;;;;;5080052;28;20507;-60
2023/11/24 03:26:48;;;;;;;11.13;3.80;;;6.00;99.90;;;;;;5079969;28;20764;-60
2023/11/24 03:29:15;;;;;;;9.53;3.20;;;6.00;99.90;;;;;;5079467;28;20522;-59
2023/11/24 03:31:44;;;;;;;15.40;3.63;;;6.00;99.90;;;;;;5080039;28;20464;-60
2023/11/24 03:34:11;;;;;;;10.30;3.63;;;6.10;99.90;;;;;;5078995;28;20745;-60
2023/11/24 03:36:39;;;;;;;14.67;4.97;;;6.10;99.90;;;;;;5080000;28;20484;-60
2023/11/24 03:39:06;;;;;;;17.70;4.00;;;6.10;99.90;;;;;;5079375;28;20485;-60
2023/11/24 03:41:35;;;;;;;15.17;3.50;;;6.10;99.90;;;;;;5079571;28;20476;-59
2023/11/24 03:44:03;;;;;;;13.30;5.33;;;6.20;99.90;;;;;;5080054;28;20465;-60
2023/11/24 03:46:30;;;;;;;11.80;4.50;;;6.20;99.90;;;;;;5080046;28;20465;-60
2023/11/24 03:48:59;;;;;;;13.47;3.90;;;6.20;99.90;;;;;;5079098;28;20453;-60
2023/11/24 03:51:27;;;;;;;14.43;5.67;;;6.30;99.90;;;;;;5079125;28;20460;-60
2023/11/24 03:53:54;;;;;;;14.00;4.73;;;6.30;99.90;;;;;;5079429;28;20464;-59
2023/11/24 03:56:21;;;;;;;14.10;3.80;;;6.30;99.90;;;;;;5079277;28;20469;-61
2023/11/24 03:58:48;;;;;;;17.10;5.00;;;6.30;99.90;;;;;;5079261;28;20789;-60
2023/11/24 04:01:15;;;;;;;13.27;4.10;;;6.30;99.90;;;;;;5079406;28;20505;-60
2023/11/24 04:03:47;;;;;;;16.30;5.40;;;6.30;99.90;;;;;;5079235;28;20472;-60
2023/11/24 04:06:16;;;;;;;18.40;4.60;;;6.30;99.90;;;;;;5079607;28;20461;-60
2023/11/24 04:08:43;;;;;;;11.80;4.30;;;6.30;99.90;;;;;;5079185;28;20445;-60
2023/11/24 04:11:10;;;;;;;9.60;4.10;;;6.30;99.90;;;;;;5079228;28;20438;-60
2023/11/24 04:13:38;;;;;;;12.40;4.00;;;6.30;99.90;;;;;;5078414;28;20489;-60
2023/11/24 04:16:07;;;;;;;17.93;4.53;;;6.30;99.90;;;;;;5079543;28;20518;-60
2023/11/24 04:18:34;;;;;;;15.37;4.20;;;6.30;99.90;;;;;;5079041;28;20496;-60
2023/11/24 04:21:02;;;;;;;15.70;4.17;;;6.30;99.90;;;;;;5077967;28;20772;-60
2023/11/24 04:23:30;;;;;;;24.50;4.30;;;6.30;99.90;;;;;;5078739;28;20464;-60
2023/11/24 04:25:58;;;;;;;11.47;3.40;;;6.40;99.90;;;;;;5078961;28;20453;-60
2023/11/24 04:28:25;;;;;;;12.77;4.30;;;6.40;99.90;;;;;;5078889;28;20453;-60
2023/11/24 04:30:53;;;;;;;11.83;4.57;;;6.40;99.90;;;;;;5078203;28;20515;-62
2023/11/24 04:33:20;;;;;;;12.30;4.60;;;6.40;99.90;;;;;;5078366;28;20457;-60
2023/11/24 04:35:48;;;;;;;14.80;4.77;;;6.50;99.90;;;;;;5078083;28;20457;-60
2023/11/24 04:38:16;;;;;;;10.53;3.50;;;6.40;99.90;;;;;;5077974;28;20518;-61
2023/11/24 04:40:44;;;;;;;11.87;3.77;;;6.50;99.90;;;;;;5078681;28;20852;-61
2023/11/24 04:43:11;;;;;;;9.23;3.70;;;6.40;99.90;;;;;;5078595;28;20469;-60
2023/11/24 04:45:40;;;;;;;15.37;4.83;;;6.40;99.90;;;;;;5078694;28;20463;-61
2023/11/24 04:48:07;;;;;;;14.40;4.17;;;6.40;99.90;;;;;;5078520;28;20439;-61
2023/11/24 04:50:34;;;;;;;12.83;4.50;;;6.40;99.90;;;;;;5078405;28;20468;-61
2023/11/24 04:53:02;;;;;;;16.00;4.50;;;6.40;99.90;;;;;;5078228;28;20460;-61
2023/11/24 04:55:29;;;;;;;14.37;4.43;;;6.40;99.90;;;;;;5077732;28;20460;-60
2023/11/24 04:57:58;;;;;;;11.17;4.50;;;6.40;99.90;;;;;;5078103;28;20457;-60
2023/11/24 05:00:25;;;;;;;7.70;3.47;;;6.40;99.90;;;;;;5077937;28;20781;-60
2023/11/24 05:02:53;;;;;;;9.50;3.57;;;6.40;99.90;;;;;;5077251;28;20462;-60
2023/11/24 05:05:20;;;;;;;11.83;4.23;;;6.40;99.90;;;;;;5076612;28;20461;-61
2023/11/24 05:07:47;;;;;;;9.63;3.90;;;6.40;99.90;;;;;;5077975;28;20503;-60
2023/11/24 05:10:14;;;;;;;9.90;3.77;;;6.40;99.90;;;;;;5078172;28;20454;-61
2023/11/24 05:12:41;;;;;;;10.37;3.90;;;6.40;99.90;;;;;;5078466;28;20468;-61
2023/11/24 05:15:12;;;;;;;8.67;3.80;;;6.40;99.90;;;;;;5077907;28;20454;-60
2023/11/24 05:17:40;;;;;;;11.23;3.27;;;6.40;99.90;;;;;;5077716;28;20453;-61
2023/11/24 05:20:08;;;;;;;10.60;3.77;;;6.40;99.90;;;;;;5076685;28;20830;-61
2023/11/24 05:22:35;;;;;;;8.77;3.67;;;6.40;99.90;;;;;;5075853;28;20465;-62
2023/11/24 05:25:03;;;;;;;9.27;3.53;;;6.40;99.90;;;;;;5075370;28;20453;-61
2023/11/24 05:27:30;;;;;;;10.07;2.90;;;6.30;99.90;;;;;;5076094;28;20515;-61
2023/11/24 05:29:58;;;;;;;12.73;3.70;;;6.40;99.90;;;;;;5076265;28;20530;-61
2023/11/24 05:32:26;;;;;;;12.10;3.57;;;6.30;99.90;;;;;;5076000;28;20552;-62
2023/11/24 05:34:54;;;;;;;15.37;4.10;;;6.30;99.90;;;;;;5076131;28;20747;-60
2023/11/24 05:37:21;;;;;;;8.27;3.77;;;6.30;99.90;;;;;;5077073;28;20465;-60
2023/11/24 05:39:48;;;;;;;8.30;3.43;;;6.30;99.90;;;;;;5077668;28;20765;-59
2023/11/24 05:42:16;;;;;;;9.53;3.10;;;6.30;99.90;;;;;;5076932;28;20504;-59
2023/11/24 05:44:43;;;;;;;8.67;3.83;;;6.10;99.90;;;;;;5077116;28;20453;-58
2023/11/24 05:47:10;;;;;;;8.83;3.80;;;6.00;99.90;;;;;;5075675;28;20440;-59
2023/11/24 05:49:41;;;;;;;8.40;4.60;;;5.90;99.90;;;;;;5076681;28;20707;-60
2023/11/24 05:52:15;;;;;;;8.43;4.40;;;5.90;99.90;;;;;;5077327;28;20462;-62
2023/11/24 05:54:42;;;;;;;11.70;4.83;;;5.90;99.90;;;;;;5077639;28;20544;-58
2023/11/24 05:57:10;;;;;;;10.43;6.40;;;5.90;99.90;;;;;;5077068;28;20563;-59
2023/11/24 05:59:39;;;;;;;12.30;4.47;;;5.90;99.90;;;;;;5076679;28;20926;-60
2023/11/24 06:02:06;;;;;;;7.53;4.47;;;6.00;99.90;;;;;;5077013;28;20771;-59
2023/11/24 06:04:34;;;;;;;12.57;6.50;;;6.00;99.90;;;;;;5077319;28;20464;-62
2023/11/24 06:07:02;;;;;;;10.03;4.50;;;5.90;99.90;;;;;;5076684;28;20492;-62
2023/11/24 06:09:30;;;;;;;9.80;3.97;;;5.90;99.90;;;;;;5077014;28;20433;-62
2023/11/24 06:11:57;;;;;;;9.27;4.90;;;5.90;99.90;;;;;;5077355;28;20560;-62
2023/11/24 06:14:24;;;;;;;8.07;3.43;;;5.90;99.90;;;;;;5077130;28;20457;-62
2023/11/24 06:16:52;;;;;;;10.70;3.90;;;5.90;99.90;;;;;;5076828;28;20791;-62
2023/11/24 06:19:19;;;;;;;9.77;4.23;;;5.90;99.90;;;;;;5076736;28;20888;-62
2023/11/24 06:21:46;;;;;;;9.77;4.00;;;5.90;99.90;;;;;;5075662;28;20453;-61
2023/11/24 06:24:15;;;;;;;12.87;4.23;;;5.90;99.90;;;;;;5076705;28;20484;-61
2023/11/24 06:26:42;;;;;;;11.00;3.23;;;5.90;99.90;;;;;;5077092;28;20493;-62
2023/11/24 06:29:10;;;;;;;9.30;4.13;;;5.90;99.90;;;;;;5075916;28;20461;-61
2023/11/24 06:31:38;;;;;;;11.20;3.50;;;5.90;99.90;;;;;;5078724;28;20457;-61
2023/11/24 06:34:05;;;;;;;7.90;4.40;;;5.90;99.90;;;;;;5081355;28;20457;-61
2023/11/24 06:36:32;;;;;;;9.77;3.70;;;6.00;99.90;;;;;;5080537;28;20474;-61
2023/11/24 06:39:02;;;;;;;15.40;4.20;;;6.00;99.90;;;;;;5079312;28;20540;-61
2023/11/24 06:41:31;;;;;;;11.27;4.63;;;6.10;99.90;;;;;;5080520;28;20461;-65
2023/11/24 06:43:58;;;;;;;9.03;3.47;;;6.00;99.90;;;;;;5080677;28;20557;-64
2023/11/24 06:46:26;;;;;;;13.07;4.27;;;6.00;99.90;;;;;;5080851;28;20918;-64
2023/11/24 06:48:53;;;;;;;8.37;3.57;;;6.00;99.90;;;;;;5077335;28;20564;-65
2023/11/24 06:51:20;;;;;;;9.30;4.40;;;6.00;99.90;;;;;;5076887;28;20447;-65
2023/11/24 06:53:48;;;;;;;14.40;5.03;;;6.00;99.90;;;;;;5080567;28;20465;-65
2023/11/24 06:56:15;;;;;;;9.80;4.00;;;5.90;99.90;;;;;;5080523;28;20461;-65
2023/11/24 06:58:44;;;;;;;15.00;4.77;;;5.90;99.90;;;;;;5079455;28;20464;-64
2023/11/24 07:01:11;;;;;;;12.27;5.23;;;6.00;99.90;;;;;;5079322;28;20896;-65
2023/11/24 07:03:38;;;;;;;12.60;5.33;;;5.90;99.90;;;;;;5077414;28;20469;-65
2023/11/24 07:06:06;;;;;;;10.70;4.97;;;5.90;99.90;;;;;;5078319;28;20461;-65
2023/11/24 07:08:34;;;;;;;11.17;4.47;;;5.90;99.90;;;;;;5078473;28;20523;-65
2023/11/24 07:11:04;;;;;;;20.73;5.13;;;5.90;99.90;;;;;;5078727;28;20959;-65
2023/11/24 07:13:31;;;;;;;14.80;5.17;;;5.90;99.90;;;;;;5079107;28;20457;-65
2023/11/24 07:16:00;;;;;;;12.23;4.23;;;5.90;99.90;;;;;;5079814;28;20461;-65
2023/11/24 07:18:27;;;;;;;12.00;4.00;;;5.80;99.90;;;;;;5081889;28;20453;-64
2023/11/24 07:20:54;;;;;;;10.73;5.73;;;5.80;99.90;;;;;;5082791;28;20491;-65
2023/11/24 07:23:21;;;;;;;10.67;3.80;;;5.70;99.90;;;;;;5081981;28;20453;-65
2023/11/24 07:25:49;;;;;;;8.97;4.07;;;5.60;99.90;;;;;;5082354;28;20468;-66
2023/11/24 07:28:17;;;;;;;6.47;3.20;;;5.50;99.90;;;;;;5083223;28;20510;-66
2023/11/24 07:30:45;;;;;;;8.63;3.37;;;5.50;99.90;;;;;;5084442;28;20599;-67
2023/11/24 07:33:14;;;;;;;6.10;3.20;;;5.40;99.90;;;;;;5084888;28;20496;-67
2023/11/24 07:35:41;;;;;;;10.20;3.40;;;5.40;99.90;;;;;;5080579;28;20572;-67
2023/11/24 07:38:08;;;;;;;5.93;3.60;;;5.40;99.90;;;;;;5081646;28;20458;-66
2023/11/24 07:40:35;;;;;;;7.90;3.23;;;5.40;99.90;;;;;;5079702;28;20936;-66
2023/11/24 07:43:03;;;;;;;11.47;3.30;;;5.50;99.90;;;;;;5079807;28;20481;-66
2023/11/24 07:45:30;;;;;;;9.77;3.93;;;5.50;99.90;;;;;;5079833;28;20491;-67
2023/11/24 07:47:57;;;;;;;9.87;4.40;;;5.50;99.90;;;;;;5078093;28;20461;-66
2023/11/24 07:50:26;;;;;;;7.13;4.03;;;5.50;99.90;;;;;;5078828;28;20732;-66
2023/11/24 07:52:53;;;;;;;14.43;6.50;;;5.50;99.90;;;;;;5078932;28;20475;-66
2023/11/24 07:55:20;;;;;;;5.80;2.90;;;5.40;99.90;;;;;;5079912;28;20909;-66
2023/11/24 07:57:47;;;;;;;7.17;3.53;;;5.30;99.90;;;;;;5077795;28;20453;-67
2023/11/24 08:00:17;;;;;;;6.63;3.90;;;5.40;99.90;;;;;;5077532;28;20751;-67
2023/11/24 08:02:44;;;;;;;8.80;4.27;;;5.40;99.90;;;;;;5076703;28;20467;-66
2023/11/24 08:05:11;;;;;;;7.77;3.47;;;5.30;99.90;;;;;;5076754;28;20753;-66
2023/11/24 08:07:40;;;;;;;7.43;3.20;;;5.30;99.90;;;;;;5076414;28;20555;-65
2023/11/24 08:10:08;;;;;;;9.60;3.57;;;5.20;99.90;;;;;;5077792;28;20446;-66
2023/11/24 08:12:35;;;;;;;9.07;3.63;;;5.30;99.90;;;;;;5078133;28;20469;-66
2023/11/24 08:15:03;;;;;;;6.70;3.07;;;5.30;99.90;;;;;;5077602;28;20493;-66
2023/11/24 08:17:30;;;;;;;5.80;3.37;;;5.40;99.90;;;;;;5078132;28;20474;-65
2023/11/24 08:19:57;;;;;;;7.53;3.70;;;5.50;99.90;;;;;;5078072;28;20588;-66
2023/11/24 08:22:25;;;;;;;6.07;2.87;;;5.50;99.90;;;;;;5077381;28;20556;-66
2023/11/24 08:24:55;;;;;;;11.23;4.87;;;5.40;99.90;;;;;;5077144;28;20894;-66
2023/11/24 08:27:22;;;;;;;6.63;3.70;;;5.50;99.90;;;;;;5076709;28;20875;-66
2023/11/24 08:29:51;;;;;;;9.10;3.93;;;5.50;99.90;;;;;;5077702;28;20458;-66
2023/11/24 08:32:18;;;;;;;5.60;3.97;;;5.50;99.90;;;;;;5078093;28;20819;-63
2023/11/24 08:34:45;;;;;;;11.43;5.23;;;5.50;99.90;;;;;;5078200;28;20890;-62
2023/11/24 08:37:12;;;;;;;8.10;5.33;;;5.40;99.90;;;;;;5079437;28;20461;-62
2023/11/24 08:39:40;;;;;;;7.70;4.50;;;5.40;99.90;;;;;;5078608;28;20548;-65
2023/11/24 08:42:10;;;;;;;9.40;4.53;;;5.40;99.90;;;;;;5079463;28;20492;-62
2023/11/24 08:44:37;;;;;;;12.33;4.23;;;5.30;99.90;;;;;;5079243;28;20554;-62
2023/11/24 08:47:04;;;;;;;6.53;3.67;;;5.40;99.90;;;;;;5079000;28;20432;-62
2023/11/24 08:49:32;;;;;;;8.57;4.37;;;5.30;99.90;;;;;;5078605;28;20457;-62
2023/11/24 08:51:59;;;;;;;8.17;3.70;;;5.30;99.90;;;;;;5078680;28;20526;-61
2023/11/24 08:54:26;;;;;;;10.63;3.10;;;5.40;99.90;;;;;;5078702;28;20457;-63
2023/11/24 08:56:54;;;;;;;8.17;3.40;;;5.60;99.90;;;;;;5078111;28;20436;-63
2023/11/24 08:59:23;;;;;;;9.10;3.40;;;5.80;99.90;;;;;;5078350;28;20467;-62
2023/11/24 09:01:50;;;;;;;9.40;3.30;;;5.80;99.90;;;;;;5078277;28;20544;-62
2023/11/24 09:04:17;;;;;;;9.33;3.60;;;5.90;99.90;;;;;;5078597;28;20467;-62
2023/11/24 09:06:44;;;;;;;8.57;3.47;;;5.90;99.90;;;;;;5078068;28;20888;-63
2023/11/24 09:09:12;;;;;;;7.13;3.90;;;5.80;99.90;;;;;;5078520;28;20458;-62
2023/11/24 09:11:39;;;;;;;10.50;3.90;;;5.60;99.90;;;;;;5077934;28;20487;-62
2023/11/24 09:14:07;;;;;;;8.77;3.63;;;5.60;99.90;;;;;;5077087;28;20565;-62
2023/11/24 09:16:38;;;;;;;9.23;4.47;;;5.60;99.90;;;;;;5078783;28;20867;-62
2023/11/24 09:19:05;;;;;;;8.50;4.00;;;5.50;99.90;;;;;;5078332;28;20463;-65
2023/11/24 09:21:33;;;;;;;6.10;3.63;;;5.60;99.90;;;;;;5078254;28;20951;-61
2023/11/24 09:24:01;;;;;;;5.80;3.40;;;5.50;99.90;;;;;;5078462;28;20537;-61
2023/11/24 09:26:28;;;;;;;7.87;4.10;;;5.50;99.90;;;;;;5077791;28;20475;-62
2023/11/24 09:28:55;;;;;;;8.07;2.67;;;5.50;99.90;;;;;;5078043;28;20789;-62
2023/11/24 09:31:22;;;;;;;6.20;3.60;;;5.60;99.90;;;;;;5077581;28;20485;-62
2023/11/24 09:33:52;;;;;;;4.97;2.97;;;5.60;99.90;;;;;;5077999;28;20465;-62
2023/11/24 09:36:19;;;;;;;6.07;3.13;;;5.60;99.90;;;;;;5077558;28;20432;-62
2023/11/24 09:38:48;;;;;;;8.47;2.80;;;5.60;99.90;;;;;;5075943;28;20702;-63
2023/11/24 09:41:17;;;;;;;11.20;2.70;;;5.60;99.90;;;;;;5075933;28;20493;-65
2023/11/24 09:43:44;;;;;;;8.43;3.07;;;5.80;99.90;;;;;;5076360;28;20457;-63
2023/11/24 09:46:12;;;;;;;8.10;2.93;;;5.80;99.90;;;;;;5076734;28;20551;-62
2023/11/24 09:48:42;;;;;;;4.53;3.17;;;6.00;99.90;;;;;;5076933;28;20453;-67
2023/11/24 09:51:16;;;;;;;5.27;2.40;;;6.00;99.90;;;;;;5076598;28;20460;-63
2023/11/24 09:53:44;;;;;;;9.23;2.50;;;6.10;99.90;;;;;;5077702;28;20461;-63
2023/11/24 09:56:11;;;;;;;4.93;2.40;;;6.20;99.90;;;;;;5077373;28;20530;-64
2023/11/24 09:58:42;;;;;;;7.50;2.73;;;6.40;99.90;;;;;;5077430;28;20510;-64
2023/11/24 10:01:16;;;;;;;4.20;2.43;;;6.40;99.90;;;;;;5077248;28;20496;-65
2023/11/24 10:03:47;;;;;;;6.77;3.10;;;6.40;99.90;;;;;;5077215;28;20452;-64
2023/11/24 10:06:16;;;;;;;4.90;2.47;;;6.30;99.90;;;;;;5076710;28;20522;-65
2023/11/24 10:08:45;;;;;;;6.33;2.83;;;6.20;99.90;;;;;;5077304;28;20457;-63
2023/11/24 10:11:15;;;;;;;5.77;3.57;;;6.10;99.90;;;;;;5077171;28;20464;-64
2023/11/24 10:13:43;;;;;;;4.13;2.70;;;6.00;99.90;;;;;;5076140;28;20461;-64
2023/11/24 10:16:11;;;;;;;8.83;2.57;;;5.80;99.90;;;;;;5075747;28;20461;-66
2023/11/24 10:18:39;;;;;;;5.50;2.83;;;5.80;99.90;;;;;;5076097;28;20457;-64
2023/11/24 10:21:07;;;;;;;9.00;3.60;;;5.70;99.90;;;;;;5075429;28;20778;-64
2023/11/24 10:23:36;;;;;;;7.10;2.73;;;5.60;99.90;;;;;;5076018;28;20468;-62
2023/11/24 10:26:08;;;;;;;8.40;2.60;;;5.50;99.90;;;;;;5076056;28;20462;-62
2023/11/24 10:28:36;;;;;;;5.93;3.40;;;5.50;99.90;;;;;;5076307;28;20873;-62
2023/11/24 10:31:06;;;;;;;3.80;2.27;;;5.50;99.90;;;;;;5076197;28;20486;-61
2023/11/24 10:33:33;;;;;;;5.00;3.20;;;5.50;99.90;;;;;;5077283;28;20461;-62
2023/11/24 10:36:01;;;;;;;6.73;3.70;;;5.50;99.90;;;;;;5078054;28;20457;-63
2023/11/24 10:38:32;;;;;;;11.70;5.13;;;5.30;99.90;;;;;;5077802;28;20789;-62
2023/11/24 10:41:03;;;;;;;10.77;6.53;;;5.40;99.90;;;;;;5077379;28;20980;-61
2023/11/24 10:43:33;;;;;;;9.23;5.47;;;5.30;99.90;;;;;;5077870;28;20483;-62
2023/11/24 10:46:04;;;;;;;8.70;5.17;;;5.30;99.90;;;;;;5077942;28;20464;-63
2023/11/24 10:48:37;;;;;;;7.70;4.83;;;5.30;99.90;;;;;;5077517;28;20556;-63
2023/11/24 10:51:14;;;;;;;11.53;7.57;;;5.20;99.90;;;;;;5077124;28;20475;-62
2023/11/24 10:53:49;;;;;;;8.07;5.33;;;5.20;99.90;;;;;;5077250;28;20545;-62
2023/11/24 10:56:20;;;;;;;8.87;5.90;;;5.40;99.90;;;;;;5076850;28;20514;-62
2023/11/24 10:58:53;;;;;;;14.67;7.63;;;5.50;99.90;;;;;;5076585;28;20753;-62
2023/11/24 11:01:22;;;;;;;11.03;7.73;;;5.50;99.90;;;;;;5075552;28;20497;-62
2023/11/24 11:03:52;;;;;;;11.13;6.77;;;5.50;99.90;;;;;;5075379;28;20902;-62
2023/11/24 11:06:33;;;;;;;8.97;7.40;;;5.60;99.90;;;;;;5076145;28;20488;-62
2023/11/24 11:09:19;;;;;;;10.73;6.20;;;5.60;99.90;;;;;;5076033;28;20510;-61
2023/11/24 11:12:19;;;;;;;7.20;5.53;;;5.70;99.90;;;;;;5077061;28;20886;-62
2023/11/24 11:14:48;;;;;;;8.20;4.23;;;5.70;99.90;;;;;;5076114;28;20567;-63
2023/11/24 11:17:17;;;;;;;5.23;3.77;;;5.60;99.90;;;;;;5075022;28;20793;-62
2023/11/24 11:19:58;;;;;;;7.90;4.40;;;5.50;99.90;;;;;;5081152;28;20467;-63
2023/11/24 11:22:29;;;;;;;7.67;4.00;;;5.30;99.90;;;;;;5081996;28;20511;-64
2023/11/24 11:25:32;;;;;;;7.63;4.10;;;5.20;99.90;;;;;;5081043;28;20767;-64
2023/11/24 11:28:45;;;;;;;6.20;3.73;;;5.10;99.90;;;;;;5081031;28;20472;-64
2023/11/24 11:31:38;;;;;;;9.50;4.40;;;5.10;99.90;;;;;;5080944;28;20457;-63
2023/11/24 11:34:16;;;;;;;5.50;3.97;;;5.30;99.90;;;;;;5080174;28;20963;-63
2023/11/24 11:37:06;;;;;;;6.80;3.80;;;5.30;99.90;;;;;;5081056;28;20452;-63
2023/11/24 11:39:43;;;;;;;9.17;4.20;;;5.50;99.90;;;;;;5080613;28;20457;-61
2023/11/24 11:42:11;;;;;;;5.13;3.90;;;5.90;99.90;;;;;;5079623;28;20493;-64
2023/11/24 11:44:46;;;;;;;10.33;3.43;;;6.10;99.90;;;;;;5079843;28;20460;-64
2023/11/24 11:47:26;;;;;;;5.47;3.60;;;5.90;99.90;;;;;;5079366;28;20496;-65
2023/11/24 11:49:54;;;;;;;7.63;3.60;;;6.10;99.90;;;;;;5079553;28;20559;-65
2023/11/24 11:52:24;;;;;;;8.37;3.73;;;6.30;99.90;;;;;;5079901;28;20820;-66
2023/11/24 11:54:52;;;;;;;5.50;2.63;;;6.60;99.90;;;;;;5079835;28;20461;-65
2023/11/24 11:57:21;;;;;;;6.10;3.10;;;6.30;99.90;;;;;;5080101;28;20483;-65
2023/11/24 11:59:53;;;;;;;7.90;3.63;;;5.90;99.90;;;;;;5079681;28;20465;-66
2023/11/24 12:02:22;;;;;;;5.83;2.77;;;5.80;99.90;;;;;;5079696;28;20480;-66
2023/11/24 12:04:49;;;;;;;5.33;3.20;;;5.70;99.90;;;;;;5078846;28;20457;-66
2023/11/24 12:07:18;;;;;;;8.03;4.07;;;5.60;99.90;;;;;;5076614;28;20968;-67
2023/11/24 12:09:46;;;;;;;5.80;3.10;;;5.70;99.90;;;;;;5077346;28;20889;-67
2023/11/24 12:12:14;;;;;;;6.93;3.10;;;5.50;99.90;;;;;;5079112;28;20457;-67
2023/11/24 12:14:43;;;;;;;5.13;2.90;;;5.70;99.90;;;;;;5080647;28;20461;-67
2023/11/24 12:17:12;;;;;;;9.30;2.63;;;5.60;1.00;;;;;;5079829;28;20557;-67
2023/11/24 12:19:41;;;;;;;9.30;2.73;;;5.80;14.10;;;;;;5078429;28;20461;-66
2023/11/24 12:22:10;;;;;;;5.40;2.70;;;6.00;1.00;;;;;;5079460;28;20500;-67
2023/11/24 12:24:39;;;;;;;7.40;3.40;;;5.90;1.00;;;;;;5078222;28;20693;-67
2023/11/24 12:27:08;;;;;;;5.87;2.50;;;5.90;1.00;;;;;;5077413;28;20468;-67
2023/11/24 12:29:38;;;;;;;13.17;4.90;;;5.90;1.00;;;;;;5077750;28;20464;-66
2023/11/24 12:32:07;;;;;;;7.00;3.20;;;5.80;1.00;;;;;;5076910;28;20544;-66
2023/11/24 12:34:41;;;;;;;8.37;3.67;;;5.80;1.00;;;;;;5076442;28;20523;-67
2023/11/24 12:37:09;;;;;;;8.83;3.10;;;5.70;99.90;;;;;;5070590;28;20511;-66
2023/11/24 12:39:36;;;;;;;7.73;2.90;;;5.70;99.90;;;;;;5078458;28;20767;-67
2023/11/24 12:42:05;;;;;;;5.70;3.27;;;5.60;99.90;;;;;;5078678;28;20981;-66
2023/11/24 12:44:34;;;;;;;8.47;2.83;;;5.70;99.90;;;;;;5078954;28;20468;-66
2023/11/24 12:47:15;;;;;;;10.17;3.77;;;5.60;99.90;;;;;;5078483;28;20528;-66
2023/11/24 12:50:12;;;;;;;8.23;3.93;;;5.70;99.90;;;;;;5077158;28;20504;-66
2023/11/24 12:52:42;;;;;;;5.33;2.90;;;5.80;99.90;;;;;;5053059;28;20822;-66
2023/11/24 12:55:10;;;;;;;10.33;3.10;;;5.60;99.90;;;;;;5076847;28;20454;-66
2023/11/24 12:57:41;;;;;;;6.43;3.10;;;5.60;99.90;;;;;;5077029;28;20548;-64
2023/11/24 13:00:13;;;;;;;4.90;2.87;;;5.40;99.90;;;;;;5078068;28;20500;-62
2023/11/24 13:02:41;;;;;;;4.20;2.53;;;4.80;1.00;;;;;;5078083;28;20778;-66